Hlavní strana
METAR-TAF:

METAR-TAF

Letiště :

Letiště Čáslav

Čáslav, Česká republika

zeměpisná šířka: 49-56-23N, zeměpisná délka: 15-22-55E, výška: 242 m

Aktuální stav počasí

Zpráva byla vytvořena před 1 hodinou a 36 minutami, v 09:00 UTC
Jihojihovýchodní vítr 16 kt s nárazy do 26 kt
Teplota 18°C
Vlhkost vzduchu 32%
Tlak 1019 hPa
Viditelnost 10 km a více
Žádná oblačnost pod 1500 m, nevyskytují se cumulonimby.

METAR: LKCV 150900Z 16016G26KT CAVOK 18/01 Q1019 NOSIG RMK BLU BLU

Čas: 12:36 (10:36 UTC)

Předpověď počasí

Zpráva byla vytvořena před 5 hodinami a 36 minutami, v 05:00 UTC
Předpověď platná od 15 v 06 UTC do 16 v 06 UTC
Jihojihovýchodní vítr 14 kt s nárazy do 24 kt
Viditelnost 10 km a více
Žádná oblačnost pod 1500 m, nevyskytují se cumulonimby.
Dočasný
od 15 v 06 UTC do 15 v 12 UTC
Jihojihovýchodní vítr 20 kt s nárazy do 30 kt
Změna
od 15 v 18 UTC do 15 v 20 UTC
Jihovýchodní vítr 12 kt

TAF: LKCV 150500Z 1506/1606 15014G24KT CAVOK TEMPO 1506/1512 15020G30KT BECMG 1518/1520 13012KT

Stav a předpovědi počasí z více než 4 000 letišť (zprávy METAR a TAF).

Červené a žluté tečky na mapě představují dostupné meteorologické stanice.

Když kurzor umístíte na tečku, zobrazí se název stanice.

Pak kliknutím zobrazíte stav a předpověď počasí.

Chcete-li změnit mapu, kliknutím na zelené tlačítko se znaménkem +mapu přiblížíte, kliknutím na zelené tlačítko se znaménkem – mapu oddálíte a kliknutím na zelené šipky přejdete na sousední mapy.


METAR-TAF: